createdAt,value
2022-12-03T00:00:54.466Z,95593.65
2022-12-03T00:03:20.919Z,95591.91
2022-12-03T00:05:49.209Z,95597.05
2022-12-03T00:08:13.609Z,95599.17
2022-12-03T00:10:40.095Z,95597.14
2022-12-03T00:13:06.309Z,95605.23
2022-12-03T00:15:32.689Z,95610.47
2022-12-03T00:17:59.114Z,95611.76
2022-12-03T00:20:25.462Z,95616.45
2022-12-03T00:22:51.900Z,95616.91
2022-12-03T00:25:18.241Z,95620.31
2022-12-03T00:27:44.659Z,95619.85
2022-12-03T00:30:11.004Z,95618.20
2022-12-03T00:32:37.393Z,95619.14
2022-12-03T00:35:03.738Z,95621.97
2022-12-03T00:37:30.131Z,95623.34
2022-12-03T00:39:56.479Z,95624.63
2022-12-03T00:42:23.810Z,95628.61
2022-12-03T00:44:49.226Z,95631.56
2022-12-03T00:47:15.617Z,95626.50
2022-12-03T00:49:41.959Z,95629.90
2022-12-03T00:52:08.350Z,95631.27
2022-12-03T00:54:34.698Z,95636.54
2022-12-03T00:57:01.080Z,95639.83
2022-12-03T00:59:27.424Z,95646.27
2022-12-03T01:01:53.898Z,95651.88
2022-12-03T01:04:20.222Z,95651.42
2022-12-03T01:06:46.553Z,95655.28
2022-12-03T01:09:12.890Z,95653.98
2022-12-03T01:11:39.274Z,95655.48
2022-12-03T01:14:05.619Z,95655.85
2022-12-03T01:16:32.064Z,95658.88
2022-12-03T01:18:58.412Z,95661.46
2022-12-03T01:21:24.804Z,95656.31
2022-12-03T01:23:51.147Z,95667.89
2022-12-03T01:26:17.555Z,95668.81
2022-12-03T01:28:43.907Z,95667.64
2022-12-03T01:31:10.323Z,95672.33
2022-12-03T01:33:36.632Z,95675.36
2022-12-03T01:36:03.036Z,95680.86
2022-12-03T01:38:29.372Z,95681.23
2022-12-03T01:40:55.758Z,95674.98
2022-12-03T01:43:22.105Z,95675.82
2022-12-03T01:45:48.487Z,95673.62
2022-12-03T01:48:14.822Z,95668.09
2022-12-03T01:50:41.215Z,95669.92
2022-12-03T01:53:07.562Z,95670.30
2022-12-03T01:55:33.986Z,95669.84
2022-12-03T01:58:00.326Z,95669.02
2022-12-03T02:00:26.711Z,95675.08
2022-12-03T02:02:53.055Z,95674.25
2022-12-03T02:05:19.438Z,95666.52
2022-12-03T02:07:45.818Z,95665.23
2022-12-03T02:10:12.175Z,95657.97
2022-12-03T02:12:38.525Z,95664.29
2022-12-03T02:15:04.908Z,95666.52
2022-12-03T02:17:31.252Z,95666.52
2022-12-03T02:19:57.641Z,95663.95
2022-12-03T02:22:23.989Z,95661.38
2022-12-03T02:24:50.678Z,95662.75
2022-12-03T02:27:16.706Z,95665.69
2022-12-03T02:29:43.091Z,95667.81
2022-12-03T02:32:09.488Z,95663.58
2022-12-03T02:34:35.868Z,95659.34
2022-12-03T02:37:02.200Z,95655.97
2022-12-03T02:39:28.585Z,95659.00
2022-12-03T02:41:54.920Z,95656.42
2022-12-03T02:44:21.315Z,95652.19
2022-12-03T02:46:47.755Z,95656.31
2022-12-03T02:49:14.047Z,95654.69
2022-12-03T02:51:40.389Z,95658.55
2022-12-03T02:54:06.776Z,95662.41
2022-12-03T02:56:33.116Z,95659.09
2022-12-03T02:58:59.502Z,95659.00
2022-12-03T03:01:25.910Z,95652.65
2022-12-03T03:03:52.254Z,95649.62
2022-12-03T03:06:19.557Z,95655.22
2022-12-03T03:08:44.966Z,95662.48
2022-12-03T03:11:11.320Z,95663.86
2022-12-03T03:13:37.706Z,95663.69
2022-12-03T03:16:04.154Z,95659.20
2022-12-03T03:18:30.474Z,95660.12
2022-12-03T03:20:56.841Z,95658.72
2022-12-03T03:23:23.236Z,95654.05
2022-12-03T03:25:49.579Z,95652.77
2022-12-03T03:28:16.000Z,95655.59
2022-12-03T03:30:42.344Z,95656.97
2022-12-03T03:33:08.727Z,95653.11
2022-12-03T03:35:35.072Z,95648.41
2022-12-03T03:38:01.457Z,95652.77
2022-12-03T03:40:27.805Z,95655.69
2022-12-03T03:42:54.191Z,95651.48
2022-12-03T03:45:25.489Z,95651.94
2022-12-03T03:47:46.932Z,95654.05
2022-12-03T03:50:13.269Z,95662.23
2022-12-03T03:52:39.705Z,95664.06
2022-12-03T03:55:06.045Z,95670.50
2022-12-03T03:57:32.430Z,95667.84
2022-12-03T03:59:59.725Z,95671.95
2022-12-03T04:02:25.172Z,95670.30
2022-12-03T04:04:51.845Z,95667.01
2022-12-03T04:07:17.907Z,95665.98
2022-12-03T04:09:44.253Z,95664.49
2022-12-03T04:12:10.673Z,95663.78
2022-12-03T04:14:37.018Z,95672.33
2022-12-03T04:17:03.467Z,95677.85
2022-12-03T04:19:29.745Z,95682.05
2022-12-03T04:21:56.133Z,95678.19
2022-12-03T04:24:22.481Z,95680.88
2022-12-03T04:26:48.920Z,95689.78
2022-12-03T04:29:15.677Z,95691.64
2022-12-03T04:31:42.117Z,95686.03
2022-12-03T04:34:08.474Z,95692.02
2022-12-03T04:36:34.889Z,95686.86
2022-12-03T04:39:01.237Z,95686.75
2022-12-03T04:41:27.629Z,95694.92
2022-12-03T04:43:53.979Z,95696.67
2022-12-03T04:46:20.401Z,95702.56
2022-12-03T04:48:46.713Z,95703.94
2022-12-03T04:51:13.097Z,95710.75
2022-12-03T04:53:45.851Z,95707.80
2022-12-03T04:56:05.863Z,95698.45
2022-12-03T04:58:32.202Z,95703.11
2022-12-03T05:00:58.622Z,95699.36
2022-12-03T05:03:24.923Z,95700.53
2022-12-03T05:05:51.308Z,95700.91
2022-12-03T05:10:55.914Z,95692.27
2022-12-03T05:13:22.303Z,95695.19
2022-12-03T05:15:49.708Z,95695.67
2022-12-03T05:18:15.044Z,95704.59
2022-12-03T05:20:41.392Z,95700.28
2022-12-03T05:23:10.203Z,95702.02
2022-12-03T05:25:36.569Z,95703.69
2022-12-03T05:28:02.960Z,95712.32
2022-12-03T05:30:29.379Z,95711.41
2022-12-03T05:32:56.212Z,95710.95
2022-12-03T05:35:22.616Z,95705.89
2022-12-03T05:37:48.960Z,95701.62
2022-12-03T05:40:15.345Z,95703.31
2022-12-03T05:42:41.712Z,95709.66
2022-12-03T05:45:08.098Z,95715.27
2022-12-03T05:47:34.440Z,95722.99
2022-12-03T05:50:00.818Z,95725.11
2022-12-03T05:52:27.162Z,95731.89
2022-12-03T05:54:53.815Z,95728.14
2022-12-03T05:57:19.895Z,95726.74
2022-12-03T05:59:46.276Z,95731.55
2022-12-03T06:02:12.723Z,95731.89
2022-12-03T06:04:39.006Z,95728.14
2022-12-03T06:07:09.621Z,95727.95
2022-12-03T06:09:31.742Z,95732.52
2022-12-03T06:11:58.085Z,95743.57
2022-12-03T06:14:24.465Z,95746.80
2022-12-03T06:16:50.803Z,95744.22
2022-12-03T06:19:17.184Z,95746.80
2022-12-03T06:21:43.528Z,95745.97
2022-12-03T06:24:09.905Z,95746.34
2022-12-03T06:26:36.248Z,95749.45
2022-12-03T06:29:03.664Z,95750.94
2022-12-03T06:31:30.092Z,95755.52
2022-12-03T06:33:56.391Z,95752.03
2022-12-03T06:36:23.418Z,95758.47
2022-12-03T06:38:49.148Z,95754.52
2022-12-03T06:41:15.492Z,95764.91
2022-12-03T06:43:41.984Z,95764.91
2022-12-03T06:46:08.376Z,95761.88
2022-12-03T06:48:34.726Z,95763.63
2022-12-03T06:51:01.066Z,95753.70
2022-12-03T06:53:27.451Z,95756.73
2022-12-03T06:55:53.798Z,95754.52
2022-12-03T06:58:20.198Z,95754.52
2022-12-03T07:00:46.570Z,95756.07
2022-12-03T07:03:12.982Z,95756.45
2022-12-03T07:05:39.287Z,95753.38
2022-12-03T07:08:05.717Z,95757.44
2022-12-03T07:10:32.008Z,95749.83
2022-12-03T07:12:58.396Z,95756.73
2022-12-03T07:15:24.741Z,95759.56
2022-12-03T07:17:51.146Z,95765.36
2022-12-03T07:20:17.575Z,95770.05
2022-12-03T07:22:43.957Z,95772.74
2022-12-03T07:25:10.301Z,95772.25
2022-12-03T07:27:36.696Z,95772.25
2022-12-03T07:30:03.036Z,95775.20
2022-12-03T07:32:29.420Z,95776.12
2022-12-03T07:34:56.204Z,95778.35
2022-12-03T07:37:23.515Z,95777.06
2022-12-03T07:39:48.610Z,95779.27
2022-12-03T07:42:14.992Z,95774.48
2022-12-03T07:44:41.337Z,95773.09
2022-12-03T07:47:07.811Z,95775.86
2022-12-03T07:49:34.063Z,95773.09
2022-12-03T07:52:00.472Z,95781.27
2022-12-03T07:54:26.838Z,95782.93
2022-12-03T07:56:57.965Z,95783.95
2022-12-03T07:59:19.596Z,95788.65
2022-12-03T08:01:46.087Z,95783.39
2022-12-03T08:04:12.325Z,95782.93
2022-12-03T08:06:38.709Z,95784.95
2022-12-03T08:09:05.046Z,95782.22
2022-12-03T08:11:31.489Z,95779.98
2022-12-03T08:13:57.830Z,95779.80
2022-12-03T08:16:24.294Z,95778.86
2022-12-03T08:18:50.583Z,95784.41
2022-12-03T08:21:16.999Z,95781.38
2022-12-03T08:23:43.339Z,95786.08
2022-12-03T08:26:09.753Z,95786.16
2022-12-03T08:28:36.098Z,95793.80
2022-12-03T08:31:02.530Z,95799.30
2022-12-03T08:33:28.898Z,95799.30
2022-12-03T08:35:55.292Z,95800.69
2022-12-03T08:38:21.640Z,95804.44
2022-12-03T08:40:48.020Z,95806.10
2022-12-03T08:43:14.358Z,95811.71
2022-12-03T08:45:40.853Z,95805.73
2022-12-03T08:48:07.081Z,95806.10
2022-12-03T08:50:33.477Z,95807.84
2022-12-03T08:52:59.828Z,95808.41
2022-12-03T08:55:26.211Z,95806.56
2022-12-03T08:57:52.549Z,95810.80
2022-12-03T09:00:18.934Z,95812.00
2022-12-03T09:02:45.270Z,95804.36
2022-12-03T09:05:12.657Z,95809.42
2022-12-03T09:07:38.033Z,95808.59
2022-12-03T09:10:04.388Z,95803.79
2022-12-03T09:12:30.724Z,95800.50
2022-12-03T09:14:57.114Z,95804.62
2022-12-03T09:17:23.492Z,95807.11
2022-12-03T09:19:49.877Z,95805.08
2022-12-03T09:22:16.218Z,95805.00
2022-12-03T09:24:42.595Z,95808.86
2022-12-03T09:27:09.009Z,95804.62
2022-12-03T09:29:36.679Z,95806.73
2022-12-03T09:32:01.820Z,95801.13
2022-12-03T09:34:28.148Z,95802.80
2022-12-03T09:36:54.491Z,95795.07
2022-12-03T09:39:20.875Z,95797.27
2022-12-03T09:41:47.243Z,95789.17
2022-12-03T09:44:17.663Z,95795.53
2022-12-03T09:46:39.983Z,95789.17
2022-12-03T09:49:10.758Z,95793.41
2022-12-03T09:51:32.706Z,95789.55
2022-12-03T09:53:59.093Z,95788.63
2022-12-03T09:56:25.442Z,95781.70
2022-12-03T09:58:51.830Z,95785.03
2022-12-03T10:01:18.243Z,95783.74
2022-12-03T10:03:44.561Z,95783.28
2022-12-03T10:06:10.893Z,95779.77
2022-12-03T10:08:37.283Z,95777.11
2022-12-03T10:11:03.632Z,95769.38
2022-12-03T10:13:30.025Z,95769.64
2022-12-03T10:15:56.382Z,95765.78
2022-12-03T10:18:22.773Z,95763.58
2022-12-03T10:20:49.123Z,95765.69
2022-12-03T10:23:15.505Z,95757.48
2022-12-03T10:25:41.847Z,95755.73
2022-12-03T10:28:09.594Z,95754.45
2022-12-03T10:30:34.610Z,95754.36
2022-12-03T10:33:00.976Z,95749.21
2022-12-03T10:35:27.315Z,95754.73
2022-12-03T10:37:53.737Z,95755.65
2022-12-03T10:40:20.076Z,95757.31
2022-12-03T10:42:46.456Z,95749.58
2022-12-03T10:45:12.802Z,95757.20
2022-12-03T10:47:39.366Z,95750.75
2022-12-03T10:50:05.552Z,95751.59
2022-12-03T10:52:31.986Z,95745.98
2022-12-03T10:54:58.335Z,95741.66
2022-12-03T10:57:24.753Z,95740.83
2022-12-03T10:59:51.082Z,95740.45
2022-12-03T11:02:17.471Z,95744.23
2022-12-03T11:04:43.814Z,95736.50
2022-12-03T11:07:10.209Z,95727.58
2022-12-03T11:09:36.540Z,95732.16
2022-12-03T11:12:02.938Z,95726.20
2022-12-03T11:14:29.291Z,95725.71
2022-12-03T11:16:55.686Z,95732.64
2022-12-03T11:19:22.033Z,95734.64
2022-12-03T11:21:48.451Z,95738.13
2022-12-03T11:24:14.798Z,95737.67
2022-12-03T11:26:41.183Z,95736.39
2022-12-03T11:29:07.527Z,95732.90
2022-12-03T11:31:33.989Z,95740.63
2022-12-03T11:34:00.262Z,95732.07
2022-12-03T11:36:47.760Z,95728.58
2022-12-03T11:38:53.922Z,95727.75
2022-12-03T11:41:19.405Z,95723.77
2022-12-03T11:43:45.752Z,95724.34
2022-12-03T11:46:12.178Z,95720.48
2022-12-03T11:48:38.481Z,95714.12
2022-12-03T11:51:04.868Z,95717.98
2022-12-03T11:53:31.359Z,95723.14
2022-12-03T11:56:01.413Z,95712.03
2022-12-03T11:58:25.013Z,95708.97
2022-12-03T12:00:50.804Z,95708.72
2022-12-03T12:03:17.236Z,95705.23
2022-12-03T12:05:43.558Z,95709.17
2022-12-03T12:08:09.927Z,95710.95
2022-12-03T12:10:36.284Z,95707.09
2022-12-03T12:13:02.644Z,95706.80
2022-12-03T12:15:29.042Z,95708.83
2022-12-03T12:17:55.390Z,95705.52
2022-12-03T12:20:21.783Z,95710.58
2022-12-03T12:22:48.128Z,95703.69
2022-12-03T12:25:14.512Z,95709.37
2022-12-03T12:27:40.848Z,95703.52
2022-12-03T12:30:07.401Z,95710.20
2022-12-03T12:32:33.753Z,95704.34
2022-12-03T12:35:00.133Z,95696.50
2022-12-03T12:37:26.465Z,95697.78
2022-12-03T12:39:53.312Z,95698.61
2022-12-03T12:42:19.199Z,95700.36
2022-12-03T12:44:45.604Z,95701.56
2022-12-03T12:47:11.962Z,95702.11
2022-12-03T12:49:38.332Z,95702.11
2022-12-03T12:52:04.668Z,95699.19
2022-12-03T12:54:31.064Z,95697.16
2022-12-03T12:56:57.456Z,95701.31
2022-12-03T12:59:23.841Z,95702.59
2022-12-03T13:01:50.261Z,95699.65
2022-12-03T13:04:16.579Z,95698.82
2022-12-03T13:06:42.920Z,95697.53
2022-12-03T13:09:09.309Z,95699.28
2022-12-03T13:11:35.643Z,95697.08
2022-12-03T13:14:02.024Z,95693.78
2022-12-03T13:16:28.454Z,95701.85
2022-12-03T13:18:54.839Z,95703.14
2022-12-03T13:21:21.184Z,95698.82
2022-12-03T13:23:47.626Z,95699.65
2022-12-03T13:26:31.736Z,95692.95
2022-12-03T13:28:40.365Z,95694.50
2022-12-03T13:31:06.736Z,95693.30
2022-12-03T13:33:33.082Z,95686.86
2022-12-03T13:35:59.423Z,95685.56
2022-12-03T13:38:25.807Z,95685.86
2022-12-03T13:40:52.148Z,95687.23
2022-12-03T13:43:18.558Z,95681.99
2022-12-03T13:45:44.972Z,95676.47
2022-12-03T13:48:11.286Z,95684.66
2022-12-03T13:50:37.633Z,95683.00
2022-12-03T13:53:04.020Z,95683.37
2022-12-03T13:55:30.401Z,95681.63
2022-12-03T13:57:56.786Z,95685.94
2022-12-03T14:00:23.148Z,95683.37
2022-12-03T14:02:49.565Z,95679.50
2022-12-03T14:05:15.867Z,95686.77
2022-12-03T14:07:42.293Z,95679.13
2022-12-03T14:10:08.589Z,95685.48
2022-12-03T14:12:34.986Z,95687.23
2022-12-03T14:15:02.427Z,95687.60
2022-12-03T14:17:27.769Z,95694.75
2022-12-03T14:19:54.521Z,95693.67
2022-12-03T14:22:20.487Z,95696.70
2022-12-03T14:24:46.828Z,95699.08
2022-12-03T14:27:14.537Z,95696.61
2022-12-03T14:29:39.582Z,95702.59
2022-12-03T14:32:06.016Z,95700.02
2022-12-03T14:34:32.308Z,95701.77
2022-12-03T14:36:58.707Z,95707.12
2022-12-03T14:39:25.053Z,95705.38
2022-12-03T14:41:51.438Z,95707.38
2022-12-03T14:44:17.788Z,95705.25
2022-12-03T14:46:44.197Z,95715.10
2022-12-03T14:49:10.540Z,95715.19
2022-12-03T14:51:36.923Z,95717.56
2022-12-03T14:54:03.275Z,95716.13
2022-12-03T14:56:29.689Z,95721.17
2022-12-03T14:58:56.042Z,95720.70
2022-12-03T15:01:24.664Z,95724.77
2022-12-03T15:03:50.947Z,95729.34
2022-12-03T15:06:17.335Z,95727.06
2022-12-03T15:08:43.695Z,95734.79
2022-12-03T15:11:10.074Z,95735.33
2022-12-03T15:13:36.445Z,95730.09
2022-12-03T15:16:02.868Z,95738.00
2022-12-03T15:18:29.215Z,95742.11
2022-12-03T15:20:55.597Z,95739.16
2022-12-03T15:23:22.000Z,95738.70
2022-12-03T15:25:48.383Z,95740.00
2022-12-03T15:28:14.728Z,95742.00
2022-12-03T15:30:41.118Z,95744.48
2022-12-03T15:33:07.460Z,95748.35
2022-12-03T15:35:33.848Z,95745.32
2022-12-03T15:38:00.190Z,95750.02
2022-12-03T15:40:26.585Z,95750.35
2022-12-03T15:42:52.932Z,95743.91
2022-12-03T15:45:19.316Z,95745.66
2022-12-03T15:47:45.651Z,95742.28
2022-12-03T15:50:12.039Z,95744.03
2022-12-03T15:52:38.372Z,95757.16
2022-12-03T15:55:04.767Z,95757.63
2022-12-03T15:57:31.159Z,95758.54
2022-12-03T15:59:57.718Z,95755.63
2022-12-03T16:02:23.902Z,95757.73
2022-12-03T16:04:50.218Z,95750.47
2022-12-03T16:07:16.601Z,95759.48
2022-12-03T16:09:42.939Z,95756.91
2022-12-03T16:12:09.461Z,95755.70
2022-12-03T16:14:35.801Z,95761.31
2022-12-03T16:17:02.189Z,95763.89
2022-12-03T16:19:28.526Z,95758.66
2022-12-03T16:21:56.313Z,95763.80
2022-12-03T16:24:21.262Z,95757.83
2022-12-03T16:26:47.650Z,95759.11
2022-12-03T16:29:13.994Z,95760.03
2022-12-03T16:31:40.474Z,95754.05
2022-12-03T16:34:07.929Z,95755.63
2022-12-03T16:36:33.111Z,95761.48
2022-12-03T16:38:59.461Z,95763.69
2022-12-03T16:41:25.849Z,95764.18
2022-12-03T16:43:52.197Z,95762.78
2022-12-03T16:46:18.645Z,95771.33
2022-12-03T16:48:44.933Z,95772.25
2022-12-03T16:51:11.325Z,95765.81
2022-12-03T16:53:37.670Z,95771.33
2022-12-03T16:56:04.085Z,95769.59
2022-12-03T16:58:30.411Z,95771.08
2022-12-03T17:03:42.028Z,95773.08
2022-12-03T17:06:08.412Z,95780.44
2022-12-03T17:08:34.747Z,95775.77
2022-12-03T17:11:01.216Z,95776.11
2022-12-03T17:13:27.508Z,95782.47
2022-12-03T17:15:53.913Z,95777.97
2022-12-03T17:18:20.435Z,95782.21
2022-12-03T17:20:46.787Z,95782.21
2022-12-03T17:23:13.117Z,95790.20
2022-12-03T17:25:39.507Z,95789.11
2022-12-03T17:28:05.852Z,95794.26
2022-12-03T17:30:32.225Z,95795.69
2022-12-03T17:32:58.565Z,95790.39
2022-12-03T17:35:24.957Z,95786.87
2022-12-03T17:37:51.298Z,95791.94
2022-12-03T17:40:17.687Z,95788.65
2022-12-03T17:42:44.027Z,95783.21
2022-12-03T17:45:10.414Z,95789.62
2022-12-03T17:47:37.945Z,95780.41
2022-12-03T17:50:03.157Z,95782.98
2022-12-03T17:52:29.498Z,95780.66
2022-12-03T17:55:10.449Z,95784.53
2022-12-03T17:57:22.279Z,95781.49
2022-12-03T17:59:48.688Z,95778.09
2022-12-03T18:02:15.032Z,95775.17
2022-12-03T18:04:41.413Z,95781.81
2022-12-03T18:07:07.754Z,95790.25
2022-12-03T18:09:34.140Z,95793.46
2022-12-03T18:12:00.479Z,95786.19
2022-12-03T18:14:26.864Z,95785.73
2022-12-03T18:16:53.204Z,95787.94
2022-12-03T18:19:19.598Z,95791.45
2022-12-03T18:21:45.944Z,95795.32
2022-12-03T18:24:12.328Z,95797.33
2022-12-03T18:26:38.663Z,95796.49
2022-12-03T18:29:05.051Z,95801.27
2022-12-03T18:31:31.499Z,95803.97
2022-12-03T18:33:57.787Z,95795.78
2022-12-03T18:36:24.135Z,95801.56
2022-12-03T18:38:50.515Z,95802.22
2022-12-03T18:41:16.863Z,95798.36
2022-12-03T18:43:43.252Z,95798.36
2022-12-03T18:46:25.271Z,95800.47
2022-12-03T18:48:35.980Z,95802.68
2022-12-03T18:51:02.324Z,95807.83
2022-12-03T18:53:28.705Z,95807.26
2022-12-03T18:55:55.089Z,95807.63
2022-12-03T18:58:21.467Z,95803.05
2022-12-03T19:00:47.883Z,95808.09
2022-12-03T19:03:14.308Z,95809.66
2022-12-03T19:05:40.531Z,95809.58
2022-12-03T19:08:07.042Z,95804.88
2022-12-03T19:10:33.266Z,95808.48
2022-12-03T19:12:59.653Z,95814.81
2022-12-03T19:15:25.998Z,95812.23
2022-12-03T19:17:52.384Z,95817.39
2022-12-03T19:20:18.726Z,95822.45
2022-12-03T19:22:45.129Z,95826.32
2022-12-03T19:25:11.469Z,95825.23
2022-12-03T19:27:37.847Z,95818.67
2022-12-03T19:30:04.190Z,95824.41
2022-12-03T19:32:30.581Z,95826.06
2022-12-03T19:34:56.920Z,95826.14
2022-12-03T19:37:23.337Z,95828.18
2022-12-03T19:39:49.682Z,95826.14
2022-12-03T19:42:16.098Z,95821.45
2022-12-03T19:44:42.439Z,95820.73
2022-12-03T19:47:08.857Z,95819.36
2022-12-03T19:49:35.206Z,95824.03
2022-12-03T19:52:01.594Z,95821.45
2022-12-03T19:54:27.953Z,95827.89
2022-12-03T19:56:54.339Z,95822.28
2022-12-03T19:59:20.697Z,95822.28
2022-12-03T20:01:47.224Z,95822.94
2022-12-03T20:04:13.489Z,95819.82
2022-12-03T20:06:39.874Z,95821.56
2022-12-03T20:09:06.223Z,95819.91
2022-12-03T20:11:32.664Z,95822.59
2022-12-03T20:13:59.007Z,95816.04
2022-12-03T20:16:25.481Z,95816.87
2022-12-03T20:18:51.744Z,95813.00
2022-12-03T20:21:18.135Z,95820.02
2022-12-03T20:23:44.474Z,95823.50
2022-12-03T20:26:10.857Z,95820.21
2022-12-03T20:28:37.200Z,95829.86
2022-12-03T20:31:03.592Z,95832.44
2022-12-03T20:33:29.920Z,95833.35
2022-12-03T20:35:56.326Z,95830.78
2022-12-03T20:38:22.661Z,95836.12
2022-12-03T20:40:49.047Z,95829.23
2022-12-03T20:43:15.397Z,95831.31
2022-12-03T20:45:41.794Z,95825.36
2022-12-03T20:48:08.109Z,95829.23
2022-12-03T20:50:34.496Z,95825.08
2022-12-03T20:53:23.299Z,95833.89
2022-12-03T20:55:27.217Z,95833.55
2022-12-03T20:57:53.574Z,95836.12
2022-12-03T21:00:19.957Z,95832.80
2022-12-03T21:02:46.377Z,95832.08
2022-12-03T21:05:12.693Z,95835.30
2022-12-03T21:07:39.046Z,95825.56
2022-12-03T21:10:05.486Z,95826.84
2022-12-03T21:12:31.828Z,95823.78
2022-12-03T21:14:58.212Z,95820.75
2022-12-03T21:17:24.617Z,95819.66
2022-12-03T21:19:50.945Z,95825.45
2022-12-03T21:22:17.286Z,95827.84
2022-12-03T21:24:43.672Z,95821.41
2022-12-03T21:27:10.014Z,95830.16
2022-12-03T21:29:36.401Z,95829.33
2022-12-03T21:32:02.737Z,95834.02
2022-12-03T21:34:35.855Z,95830.81
2022-12-03T21:36:55.548Z,95832.47
2022-12-03T21:39:21.933Z,95831.56
2022-12-03T21:42:34.235Z,95833.65
2022-12-03T21:44:14.673Z,95834.59
2022-12-03T21:47:10.953Z,95837.25
2022-12-03T21:49:07.434Z,95827.60
2022-12-03T21:51:33.779Z,95832.86
2022-12-03T21:54:00.158Z,95834.23
2022-12-03T21:56:26.496Z,95834.03
2022-12-03T21:58:52.876Z,95834.23
2022-12-03T22:01:19.299Z,95838.92
2022-12-03T22:03:46.571Z,95838.09
2022-12-03T22:06:11.970Z,95839.50
2022-12-03T22:08:38.346Z,95840.21
2022-12-03T22:11:04.686Z,95831.39
2022-12-03T22:13:31.075Z,95833.89
2022-12-03T22:15:57.493Z,95835.26
2022-12-03T22:18:23.829Z,95830.56
2022-12-03T22:20:50.209Z,95824.50
2022-12-03T22:23:16.584Z,95830.94
2022-12-03T22:25:42.924Z,95825.98
2022-12-03T22:28:09.312Z,95821.92
2022-12-03T22:30:35.717Z,95821.66
2022-12-03T22:33:02.071Z,95824.13
2022-12-03T22:35:28.407Z,95822.19
2022-12-03T22:37:54.797Z,95820.82
2022-12-03T22:40:21.146Z,95819.61
2022-12-03T22:42:50.966Z,95811.52
2022-12-03T22:45:13.888Z,95809.42
2022-12-03T22:47:40.268Z,95814.09
2022-12-03T22:50:06.609Z,95817.16
2022-12-03T22:52:33.003Z,95820.91
2022-12-03T22:54:59.339Z,95814.92
2022-12-03T22:57:25.737Z,95821.81
2022-12-03T22:59:52.267Z,95812.27
2022-12-03T23:02:18.554Z,95810.23
2022-12-03T23:04:44.827Z,95807.20
2022-12-03T23:07:11.222Z,95808.28
2022-12-03T23:09:37.627Z,95801.13
2022-12-03T23:12:04.018Z,95802.42
2022-12-03T23:14:30.384Z,95805.62
2022-12-03T23:16:56.772Z,95801.57
2022-12-03T23:19:23.140Z,95801.11
2022-12-03T23:21:49.543Z,95804.41
2022-12-03T23:24:15.889Z,95801.37
2022-12-03T23:26:42.274Z,95799.17
2022-12-03T23:29:08.796Z,95803.03
2022-12-03T23:31:35.099Z,95804.78
2022-12-03T23:34:01.481Z,95803.95
2022-12-03T23:36:27.732Z,95797.05
2022-12-03T23:38:54.079Z,95805.95
2022-12-03T23:41:20.457Z,95800.09
2022-12-03T23:43:46.798Z,95798.23
2022-12-03T23:46:13.255Z,95796.11
2022-12-03T23:48:39.552Z,95801.37
2022-12-03T23:51:05.941Z,95793.53
2022-12-03T23:53:32.283Z,95798.69
2022-12-03T23:55:58.689Z,95805.61
2022-12-03T23:58:25.024Z,95803.03
